LEAS/OVD METAR and TAF weather

Enter ICAO airport designator
Station Type Date Time Source
LEAS METAR 2019/10/15 03:30 UTC NOAA

LEAS 150330Z AUTO 23009KT 9999 SCT068 12/07 Q1016


Station Type Date Time Source
LEAS Decoded METAR 2019/10/15 03:30 UTC NOAA

Asturias / Aviles, Spain (LEAS) 43-33N 006-02W 130M
Oct 14, 2019 - 11:30 PM EDT / 2019.10.15 0330 UTC
Wind: from the SW (230 degrees) at 10 MPH (9 KT):0
Visibility: greater than 7 mile(s):0
Sky conditions: partly cloudy
Temperature: 53 F (12 C)
Dew Point: 44 F (7 C)
Relative Humidity: 71%
Pressure (altimeter): 30.00 in. Hg (1016 hPa)
ob: LEAS 150330Z AUTO 23009KT 9999 SCT068 12/07 Q1016
cycle: 3

Station Type Date Time Source
LEAS TAF 2019/10/15 03:30 UTC NOAA

TAF LEAS 150200Z 1503/1603 23009KT 9999 SCT020 TX19/1515Z TN12/1503Z PROB30
TEMPO 1503/1509 4500 -DZRA BKN014

Example: see airport list